sensor_id;sensor_type;location;lat;lon;timestamp;P1;durP1;ratioP1;P2;durP2;ratioP2
6205;SDS011;3136;48.788;9.772;2023-12-20T00:00:04;2.00;;;1.80;;
6205;SDS011;3136;48.788;9.772;2023-12-20T00:02:30;2.43;;;2.03;;
6205;SDS011;3136;48.788;9.772;2023-12-20T00:04:56;5.27;;;2.10;;
6205;SDS011;3136;48.788;9.772;2023-12-20T00:07:21;4.00;;;2.13;;
6205;SDS011;3136;48.788;9.772;2023-12-20T00:09:47;2.50;;;2.27;;
6205;SDS011;3136;48.788;9.772;2023-12-20T00:12:13;3.00;;;2.10;;
6205;SDS011;3136;48.788;9.772;2023-12-20T00:14:38;2.87;;;2.13;;
6205;SDS011;3136;48.788;9.772;2023-12-20T00:17:04;2.70;;;2.00;;
6205;SDS011;3136;48.788;9.772;2023-12-20T00:19:29;2.10;;;1.90;;
6205;SDS011;3136;48.788;9.772;2023-12-20T00:21:55;2.73;;;2.03;;
6205;SDS011;3136;48.788;9.772;2023-12-20T00:24:20;2.20;;;2.00;;
6205;SDS011;3136;48.788;9.772;2023-12-20T00:26:46;2.40;;;1.93;;
6205;SDS011;3136;48.788;9.772;2023-12-20T00:29:12;2.47;;;1.80;;
6205;SDS011;3136;48.788;9.772;2023-12-20T00:31:37;2.80;;;2.13;;
6205;SDS011;3136;48.788;9.772;2023-12-20T00:34:03;3.23;;;2.20;;
6205;SDS011;3136;48.788;9.772;2023-12-20T00:36:28;2.57;;;1.97;;
6205;SDS011;3136;48.788;9.772;2023-12-20T00:38:54;3.17;;;2.20;;
6205;SDS011;3136;48.788;9.772;2023-12-20T00:41:19;3.93;;;2.33;;
6205;SDS011;3136;48.788;9.772;2023-12-20T00:43:45;2.10;;;1.90;;
6205;SDS011;3136;48.788;9.772;2023-12-20T00:46:10;2.10;;;1.80;;
6205;SDS011;3136;48.788;9.772;2023-12-20T00:48:36;2.30;;;1.93;;
6205;SDS011;3136;48.788;9.772;2023-12-20T00:51:01;2.90;;;1.90;;
6205;SDS011;3136;48.788;9.772;2023-12-20T00:53:27;2.23;;;1.87;;
6205;SDS011;3136;48.788;9.772;2023-12-20T00:55:53;2.20;;;1.97;;
6205;SDS011;3136;48.788;9.772;2023-12-20T00:58:18;4.50;;;2.47;;
6205;SDS011;3136;48.788;9.772;2023-12-20T01:00:44;3.47;;;2.40;;
6205;SDS011;3136;48.788;9.772;2023-12-20T01:03:10;2.73;;;2.17;;
6205;SDS011;3136;48.788;9.772;2023-12-20T01:05:36;3.20;;;2.50;;
6205;SDS011;3136;48.788;9.772;2023-12-20T01:08:01;2.17;;;1.97;;
6205;SDS011;3136;48.788;9.772;2023-12-20T01:10:28;3.30;;;1.80;;
6205;SDS011;3136;48.788;9.772;2023-12-20T01:12:54;3.20;;;2.03;;
6205;SDS011;3136;48.788;9.772;2023-12-20T01:15:20;3.27;;;2.20;;
6205;SDS011;3136;48.788;9.772;2023-12-20T01:17:45;4.83;;;2.10;;
6205;SDS011;3136;48.788;9.772;2023-12-20T01:20:11;3.80;;;2.23;;
6205;SDS011;3136;48.788;9.772;2023-12-20T01:22:36;2.17;;;1.93;;
6205;SDS011;3136;48.788;9.772;2023-12-20T01:25:02;4.13;;;2.17;;
6205;SDS011;3136;48.788;9.772;2023-12-20T01:27:28;2.00;;;1.80;;
6205;SDS011;3136;48.788;9.772;2023-12-20T01:29:54;3.00;;;2.30;;
6205;SDS011;3136;48.788;9.772;2023-12-20T01:32:19;2.73;;;1.80;;
6205;SDS011;3136;48.788;9.772;2023-12-20T01:34:45;2.43;;;2.10;;
6205;SDS011;3136;48.788;9.772;2023-12-20T01:37:10;3.03;;;2.20;;
6205;SDS011;3136;48.788;9.772;2023-12-20T01:39:36;4.60;;;2.20;;
6205;SDS011;3136;48.788;9.772;2023-12-20T01:42:01;3.43;;;2.70;;
6205;SDS011;3136;48.788;9.772;2023-12-20T01:44:27;5.50;;;2.60;;
6205;SDS011;3136;48.788;9.772;2023-12-20T01:46:52;3.53;;;2.13;;
6205;SDS011;3136;48.788;9.772;2023-12-20T01:49:19;2.77;;;2.20;;
6205;SDS011;3136;48.788;9.772;2023-12-20T01:51:45;3.77;;;2.10;;
6205;SDS011;3136;48.788;9.772;2023-12-20T01:54:11;4.13;;;2.20;;
6205;SDS011;3136;48.788;9.772;2023-12-20T01:56:37;4.57;;;2.37;;
6205;SDS011;3136;48.788;9.772;2023-12-20T01:59:04;5.13;;;2.30;;
6205;SDS011;3136;48.788;9.772;2023-12-20T02:01:31;3.50;;;2.00;;
6205;SDS011;3136;48.788;9.772;2023-12-20T02:03:57;3.50;;;2.40;;
6205;SDS011;3136;48.788;9.772;2023-12-20T02:06:23;3.77;;;2.40;;
6205;SDS011;3136;48.788;9.772;2023-12-20T02:08:53;3.03;;;1.93;;
6205;SDS011;3136;48.788;9.772;2023-12-20T02:11:18;3.57;;;2.20;;
6205;SDS011;3136;48.788;9.772;2023-12-20T02:13:45;3.47;;;2.07;;
6205;SDS011;3136;48.788;9.772;2023-12-20T02:16:10;8.63;;;2.40;;
6205;SDS011;3136;48.788;9.772;2023-12-20T02:18:36;2.43;;;2.10;;
6205;SDS011;3136;48.788;9.772;2023-12-20T02:21:03;2.60;;;2.40;;
6205;SDS011;3136;48.788;9.772;2023-12-20T02:23:30;3.47;;;2.30;;
6205;SDS011;3136;48.788;9.772;2023-12-20T02:25:55;3.20;;;2.30;;
6205;SDS011;3136;48.788;9.772;2023-12-20T02:28:21;4.43;;;2.40;;
6205;SDS011;3136;48.788;9.772;2023-12-20T02:30:47;4.67;;;2.20;;
6205;SDS011;3136;48.788;9.772;2023-12-20T02:33:14;2.87;;;2.43;;
6205;SDS011;3136;48.788;9.772;2023-12-20T02:35:40;3.73;;;2.27;;
6205;SDS011;3136;48.788;9.772;2023-12-20T02:38:06;3.40;;;2.23;;
6205;SDS011;3136;48.788;9.772;2023-12-20T02:40:32;2.67;;;2.00;;
6205;SDS011;3136;48.788;9.772;2023-12-20T02:42:57;2.37;;;2.00;;
6205;SDS011;3136;48.788;9.772;2023-12-20T02:45:23;3.23;;;1.80;;
6205;SDS011;3136;48.788;9.772;2023-12-20T02:47:48;3.27;;;2.10;;
6205;SDS011;3136;48.788;9.772;2023-12-20T02:50:14;2.50;;;1.90;;
6205;SDS011;3136;48.788;9.772;2023-12-20T02:52:40;4.07;;;2.10;;
6205;SDS011;3136;48.788;9.772;2023-12-20T02:55:05;2.77;;;2.17;;
6205;SDS011;3136;48.788;9.772;2023-12-20T02:57:31;2.57;;;1.90;;
6205;SDS011;3136;48.788;9.772;2023-12-20T02:59:58;3.00;;;2.20;;
6205;SDS011;3136;48.788;9.772;2023-12-20T03:02:24;2.97;;;2.23;;
6205;SDS011;3136;48.788;9.772;2023-12-20T03:04:49;3.97;;;2.17;;
6205;SDS011;3136;48.788;9.772;2023-12-20T03:07:15;3.40;;;1.77;;
6205;SDS011;3136;48.788;9.772;2023-12-20T03:09:40;3.17;;;2.13;;
6205;SDS011;3136;48.788;9.772;2023-12-20T03:12:06;2.47;;;1.93;;
6205;SDS011;3136;48.788;9.772;2023-12-20T03:14:31;2.53;;;2.27;;
6205;SDS011;3136;48.788;9.772;2023-12-20T03:16:57;2.93;;;2.00;;
6205;SDS011;3136;48.788;9.772;2023-12-20T03:19:22;2.63;;;1.97;;
6205;SDS011;3136;48.788;9.772;2023-12-20T03:21:48;3.40;;;1.90;;
6205;SDS011;3136;48.788;9.772;2023-12-20T03:24:14;2.00;;;1.67;;
6205;SDS011;3136;48.788;9.772;2023-12-20T03:26:39;3.13;;;1.90;;
6205;SDS011;3136;48.788;9.772;2023-12-20T03:29:05;1.60;;;1.50;;
6205;SDS011;3136;48.788;9.772;2023-12-20T03:31:30;3.37;;;1.90;;
6205;SDS011;3136;48.788;9.772;2023-12-20T03:33:56;2.53;;;2.00;;
6205;SDS011;3136;48.788;9.772;2023-12-20T03:36:21;1.80;;;1.67;;
6205;SDS011;3136;48.788;9.772;2023-12-20T03:38:47;3.57;;;2.10;;
6205;SDS011;3136;48.788;9.772;2023-12-20T03:41:13;4.70;;;2.10;;
6205;SDS011;3136;48.788;9.772;2023-12-20T03:43:38;4.00;;;2.10;;
6205;SDS011;3136;48.788;9.772;2023-12-20T03:46:04;3.30;;;1.90;;
6205;SDS011;3136;48.788;9.772;2023-12-20T03:48:30;3.33;;;1.90;;
6205;SDS011;3136;48.788;9.772;2023-12-20T03:50:56;5.50;;;2.50;;
6205;SDS011;3136;48.788;9.772;2023-12-20T03:53:22;2.63;;;2.20;;
6205;SDS011;3136;48.788;9.772;2023-12-20T03:55:48;2.00;;;1.80;;
6205;SDS011;3136;48.788;9.772;2023-12-20T03:58:13;2.50;;;1.97;;
6205;SDS011;3136;48.788;9.772;2023-12-20T04:00:39;2.80;;;2.20;;
6205;SDS011;3136;48.788;9.772;2023-12-20T04:03:04;2.13;;;1.90;;
6205;SDS011;3136;48.788;9.772;2023-12-20T04:05:30;3.53;;;2.10;;
6205;SDS011;3136;48.788;9.772;2023-12-20T04:07:55;2.07;;;1.87;;
6205;SDS011;3136;48.788;9.772;2023-12-20T04:10:21;2.20;;;1.97;;
6205;SDS011;3136;48.788;9.772;2023-12-20T04:12:46;3.83;;;2.20;;
6205;SDS011;3136;48.788;9.772;2023-12-20T04:15:12;2.00;;;1.80;;
6205;SDS011;3136;48.788;9.772;2023-12-20T04:17:37;2.40;;;1.80;;
6205;SDS011;3136;48.788;9.772;2023-12-20T04:20:03;2.70;;;1.87;;
6205;SDS011;3136;48.788;9.772;2023-12-20T04:22:29;3.50;;;2.10;;
6205;SDS011;3136;48.788;9.772;2023-12-20T04:24:54;2.87;;;2.00;;
6205;SDS011;3136;48.788;9.772;2023-12-20T04:27:20;3.23;;;2.00;;
6205;SDS011;3136;48.788;9.772;2023-12-20T04:29:46;4.03;;;2.20;;
6205;SDS011;3136;48.788;9.772;2023-12-20T04:32:11;2.20;;;2.00;;
6205;SDS011;3136;48.788;9.772;2023-12-20T04:34:37;2.03;;;1.80;;
6205;SDS011;3136;48.788;9.772;2023-12-20T04:37:03;2.17;;;1.70;;
6205;SDS011;3136;48.788;9.772;2023-12-20T04:39:28;1.90;;;1.40;;
6205;SDS011;3136;48.788;9.772;2023-12-20T04:41:54;1.50;;;1.40;;
6205;SDS011;3136;48.788;9.772;2023-12-20T04:44:20;1.77;;;1.23;;
6205;SDS011;3136;48.788;9.772;2023-12-20T04:46:45;2.53;;;1.20;;
6205;SDS011;3136;48.788;9.772;2023-12-20T04:49:11;1.10;;;1.00;;
6205;SDS011;3136;48.788;9.772;2023-12-20T04:51:36;1.10;;;1.00;;
6205;SDS011;3136;48.788;9.772;2023-12-20T04:54:03;1.97;;;1.20;;
6205;SDS011;3136;48.788;9.772;2023-12-20T04:56:28;2.63;;;2.20;;
6205;SDS011;3136;48.788;9.772;2023-12-20T04:58:54;1.60;;;1.40;;
6205;SDS011;3136;48.788;9.772;2023-12-20T05:01:19;2.13;;;1.30;;
6205;SDS011;3136;48.788;9.772;2023-12-20T05:03:45;1.30;;;1.00;;
6205;SDS011;3136;48.788;9.772;2023-12-20T05:06:11;1.33;;;1.07;;
6205;SDS011;3136;48.788;9.772;2023-12-20T05:08:36;1.80;;;1.00;;
6205;SDS011;3136;48.788;9.772;2023-12-20T05:11:02;2.90;;;1.13;;
6205;SDS011;3136;48.788;9.772;2023-12-20T05:13:28;1.47;;;1.23;;
6205;SDS011;3136;48.788;9.772;2023-12-20T05:15:53;1.47;;;1.17;;
6205;SDS011;3136;48.788;9.772;2023-12-20T05:18:20;1.47;;;1.30;;
6205;SDS011;3136;48.788;9.772;2023-12-20T05:20:46;1.30;;;1.20;;
6205;SDS011;3136;48.788;9.772;2023-12-20T05:23:11;1.30;;;1.20;;
6205;SDS011;3136;48.788;9.772;2023-12-20T05:25:38;1.40;;;1.30;;
6205;SDS011;3136;48.788;9.772;2023-12-20T05:28:04;1.30;;;1.20;;
6205;SDS011;3136;48.788;9.772;2023-12-20T05:30:29;1.43;;;1.30;;
6205;SDS011;3136;48.788;9.772;2023-12-20T05:32:55;1.50;;;1.40;;
6205;SDS011;3136;48.788;9.772;2023-12-20T05:35:21;1.43;;;1.33;;
6205;SDS011;3136;48.788;9.772;2023-12-20T05:37:48;3.27;;;1.50;;
6205;SDS011;3136;48.788;9.772;2023-12-20T05:40:14;1.30;;;1.20;;
6205;SDS011;3136;48.788;9.772;2023-12-20T05:42:39;1.87;;;1.50;;
6205;SDS011;3136;48.788;9.772;2023-12-20T05:45:05;1.53;;;1.20;;
6205;SDS011;3136;48.788;9.772;2023-12-20T05:47:31;2.20;;;1.10;;
6205;SDS011;3136;48.788;9.772;2023-12-20T05:49:57;1.23;;;0.80;;
6205;SDS011;3136;48.788;9.772;2023-12-20T05:52:22;0.80;;;0.80;;
6205;SDS011;3136;48.788;9.772;2023-12-20T05:54:48;0.50;;;0.50;;
6205;SDS011;3136;48.788;9.772;2023-12-20T05:57:14;0.50;;;0.50;;
6205;SDS011;3136;48.788;9.772;2023-12-20T05:59:39;0.83;;;0.60;;
6205;SDS011;3136;48.788;9.772;2023-12-20T06:02:05;0.57;;;0.57;;
6205;SDS011;3136;48.788;9.772;2023-12-20T06:04:31;1.13;;;0.50;;
6205;SDS011;3136;48.788;9.772;2023-12-20T06:06:57;0.60;;;0.60;;
6205;SDS011;3136;48.788;9.772;2023-12-20T06:09:22;0.57;;;0.50;;
6205;SDS011;3136;48.788;9.772;2023-12-20T06:11:48;1.67;;;1.00;;
6205;SDS011;3136;48.788;9.772;2023-12-20T06:14:14;0.90;;;0.70;;
6205;SDS011;3136;48.788;9.772;2023-12-20T06:16:40;0.73;;;0.73;;
6205;SDS011;3136;48.788;9.772;2023-12-20T06:19:05;0.80;;;0.80;;
6205;SDS011;3136;48.788;9.772;2023-12-20T06:21:31;1.93;;;1.20;;
6205;SDS011;3136;48.788;9.772;2023-12-20T06:23:58;0.70;;;0.70;;
6205;SDS011;3136;48.788;9.772;2023-12-20T06:26:24;3.93;;;1.10;;
6205;SDS011;3136;48.788;9.772;2023-12-20T06:28:50;1.03;;;0.93;;
6205;SDS011;3136;48.788;9.772;2023-12-20T06:31:16;1.20;;;1.10;;
6205;SDS011;3136;48.788;9.772;2023-12-20T06:33:42;1.50;;;1.03;;
6205;SDS011;3136;48.788;9.772;2023-12-20T06:36:10;1.30;;;1.20;;
6205;SDS011;3136;48.788;9.772;2023-12-20T06:38:38;1.80;;;1.30;;
6205;SDS011;3136;48.788;9.772;2023-12-20T06:41:03;1.50;;;1.20;;
6205;SDS011;3136;48.788;9.772;2023-12-20T06:43:29;1.57;;;1.40;;
6205;SDS011;3136;48.788;9.772;2023-12-20T06:45:56;2.13;;;1.50;;
6205;SDS011;3136;48.788;9.772;2023-12-20T06:48:21;1.80;;;1.40;;
6205;SDS011;3136;48.788;9.772;2023-12-20T06:50:47;1.80;;;1.70;;
6205;SDS011;3136;48.788;9.772;2023-12-20T06:53:12;2.17;;;1.90;;
6205;SDS011;3136;48.788;9.772;2023-12-20T06:55:38;2.17;;;1.90;;
6205;SDS011;3136;48.788;9.772;2023-12-20T06:58:03;3.20;;;1.83;;
6205;SDS011;3136;48.788;9.772;2023-12-20T07:00:30;3.07;;;1.90;;
6205;SDS011;3136;48.788;9.772;2023-12-20T07:02:55;2.97;;;2.10;;
6205;SDS011;3136;48.788;9.772;2023-12-20T07:05:21;6.13;;;2.03;;
6205;SDS011;3136;48.788;9.772;2023-12-20T07:07:47;2.40;;;2.00;;
6205;SDS011;3136;48.788;9.772;2023-12-20T07:10:13;2.93;;;1.90;;
6205;SDS011;3136;48.788;9.772;2023-12-20T07:12:38;3.33;;;1.90;;
6205;SDS011;3136;48.788;9.772;2023-12-20T07:15:04;2.10;;;1.93;;
6205;SDS011;3136;48.788;9.772;2023-12-20T07:17:33;2.57;;;2.27;;
6205;SDS011;3136;48.788;9.772;2023-12-20T07:19:59;2.40;;;2.00;;
6205;SDS011;3136;48.788;9.772;2023-12-20T07:22:29;3.37;;;2.03;;
6205;SDS011;3136;48.788;9.772;2023-12-20T07:24:56;2.20;;;2.00;;
6205;SDS011;3136;48.788;9.772;2023-12-20T07:27:22;2.40;;;2.20;;
6205;SDS011;3136;48.788;9.772;2023-12-20T07:29:48;4.07;;;1.97;;
6205;SDS011;3136;48.788;9.772;2023-12-20T07:32:13;2.60;;;2.40;;
6205;SDS011;3136;48.788;9.772;2023-12-20T07:34:39;2.97;;;2.43;;
6205;SDS011;3136;48.788;9.772;2023-12-20T07:37:04;2.80;;;2.60;;
6205;SDS011;3136;48.788;9.772;2023-12-20T07:39:30;2.87;;;2.60;;
6205;SDS011;3136;48.788;9.772;2023-12-20T07:41:56;2.30;;;2.10;;
6205;SDS011;3136;48.788;9.772;2023-12-20T07:44:21;2.60;;;2.23;;
6205;SDS011;3136;48.788;9.772;2023-12-20T07:46:47;2.70;;;2.40;;
6205;SDS011;3136;48.788;9.772;2023-12-20T07:49:13;2.40;;;2.20;;
6205;SDS011;3136;48.788;9.772;2023-12-20T07:51:39;2.73;;;2.33;;
6205;SDS011;3136;48.788;9.772;2023-12-20T07:54:04;2.70;;;2.30;;
6205;SDS011;3136;48.788;9.772;2023-12-20T07:56:30;3.67;;;2.87;;
6205;SDS011;3136;48.788;9.772;2023-12-20T07:58:56;3.07;;;2.77;;
6205;SDS011;3136;48.788;9.772;2023-12-20T08:01:21;3.80;;;2.90;;
6205;SDS011;3136;48.788;9.772;2023-12-20T08:03:48;4.87;;;2.97;;
6205;SDS011;3136;48.788;9.772;2023-12-20T08:06:14;5.13;;;3.10;;
6205;SDS011;3136;48.788;9.772;2023-12-20T08:08:39;3.90;;;3.27;;
6205;SDS011;3136;48.788;9.772;2023-12-20T08:11:05;5.53;;;3.47;;
6205;SDS011;3136;48.788;9.772;2023-12-20T08:13:31;4.67;;;3.97;;
6205;SDS011;3136;48.788;9.772;2023-12-20T08:15:56;4.20;;;3.80;;
6205;SDS011;3136;48.788;9.772;2023-12-20T08:18:22;4.83;;;4.07;;
6205;SDS011;3136;48.788;9.772;2023-12-20T08:20:48;6.33;;;4.70;;
6205;SDS011;3136;48.788;9.772;2023-12-20T08:23:14;5.57;;;4.20;;
6205;SDS011;3136;48.788;9.772;2023-12-20T08:25:39;6.87;;;4.17;;
6205;SDS011;3136;48.788;9.772;2023-12-20T08:28:05;8.07;;;4.40;;
6205;SDS011;3136;48.788;9.772;2023-12-20T08:30:31;9.70;;;4.53;;
6205;SDS011;3136;48.788;9.772;2023-12-20T08:32:59;4.83;;;4.00;;
6205;SDS011;3136;48.788;9.772;2023-12-20T08:35:25;8.53;;;4.67;;
6205;SDS011;3136;48.788;9.772;2023-12-20T08:37:51;5.17;;;3.57;;
6205;SDS011;3136;48.788;9.772;2023-12-20T08:40:16;4.60;;;3.80;;
6205;SDS011;3136;48.788;9.772;2023-12-20T08:42:42;6.40;;;4.20;;
6205;SDS011;3136;48.788;9.772;2023-12-20T08:45:08;7.07;;;4.13;;
6205;SDS011;3136;48.788;9.772;2023-12-20T08:47:33;7.50;;;4.20;;
6205;SDS011;3136;48.788;9.772;2023-12-20T08:49:59;4.53;;;4.00;;
6205;SDS011;3136;48.788;9.772;2023-12-20T08:52:25;4.40;;;3.83;;
6205;SDS011;3136;48.788;9.772;2023-12-20T08:54:54;5.10;;;4.47;;
6205;SDS011;3136;48.788;9.772;2023-12-20T08:57:20;6.73;;;4.40;;
6205;SDS011;3136;48.788;9.772;2023-12-20T08:59:46;4.50;;;4.10;;
6205;SDS011;3136;48.788;9.772;2023-12-20T09:02:12;5.07;;;4.20;;
6205;SDS011;3136;48.788;9.772;2023-12-20T09:04:38;6.33;;;4.43;;
6205;SDS011;3136;48.788;9.772;2023-12-20T09:07:04;6.40;;;4.77;;
6205;SDS011;3136;48.788;9.772;2023-12-20T09:09:29;5.77;;;4.33;;
6205;SDS011;3136;48.788;9.772;2023-12-20T09:11:57;5.63;;;4.50;;
6205;SDS011;3136;48.788;9.772;2023-12-20T09:14:23;5.97;;;4.43;;
6205;SDS011;3136;48.788;9.772;2023-12-20T09:16:48;7.47;;;4.03;;
6205;SDS011;3136;48.788;9.772;2023-12-20T09:19:16;6.57;;;4.50;;
6205;SDS011;3136;48.788;9.772;2023-12-20T09:21:44;6.33;;;4.60;;
6205;SDS011;3136;48.788;9.772;2023-12-20T09:24:09;15.40;;;6.17;;
6205;SDS011;3136;48.788;9.772;2023-12-20T09:26:35;5.23;;;4.40;;
6205;SDS011;3136;48.788;9.772;2023-12-20T09:29:01;6.47;;;4.53;;
6205;SDS011;3136;48.788;9.772;2023-12-20T09:31:26;5.40;;;4.47;;
6205;SDS011;3136;48.788;9.772;2023-12-20T09:33:52;6.00;;;4.40;;
6205;SDS011;3136;48.788;9.772;2023-12-20T09:36:17;7.10;;;4.53;;
6205;SDS011;3136;48.788;9.772;2023-12-20T09:38:43;5.33;;;3.70;;
6205;SDS011;3136;48.788;9.772;2023-12-20T09:41:08;5.07;;;3.87;;
6205;SDS011;3136;48.788;9.772;2023-12-20T09:43:35;6.47;;;3.07;;
6205;SDS011;3136;48.788;9.772;2023-12-20T09:46:03;2.97;;;2.60;;
6205;SDS011;3136;48.788;9.772;2023-12-20T09:48:32;3.93;;;2.60;;
6205;SDS011;3136;48.788;9.772;2023-12-20T09:50:58;3.20;;;2.30;;
6205;SDS011;3136;48.788;9.772;2023-12-20T09:53:24;3.80;;;2.20;;
6205;SDS011;3136;48.788;9.772;2023-12-20T09:55:55;3.60;;;1.90;;
6205;SDS011;3136;48.788;9.772;2023-12-20T09:58:26;2.70;;;2.00;;
6205;SDS011;3136;48.788;9.772;2023-12-20T10:00:52;4.00;;;2.30;;
6205;SDS011;3136;48.788;9.772;2023-12-20T10:03:22;3.47;;;1.90;;
6205;SDS011;3136;48.788;9.772;2023-12-20T10:05:52;3.10;;;2.53;;
6205;SDS011;3136;48.788;9.772;2023-12-20T10:08:21;3.57;;;2.43;;
6205;SDS011;3136;48.788;9.772;2023-12-20T10:10:49;3.33;;;2.20;;
6205;SDS011;3136;48.788;9.772;2023-12-20T10:13:15;3.67;;;2.17;;
6205;SDS011;3136;48.788;9.772;2023-12-20T10:15:41;2.60;;;2.20;;
6205;SDS011;3136;48.788;9.772;2023-12-20T10:18:07;2.93;;;1.70;;
6205;SDS011;3136;48.788;9.772;2023-12-20T10:20:33;3.87;;;2.10;;
6205;SDS011;3136;48.788;9.772;2023-12-20T10:22:59;2.63;;;2.00;;
6205;SDS011;3136;48.788;9.772;2023-12-20T10:25:25;5.07;;;1.80;;
6205;SDS011;3136;48.788;9.772;2023-12-20T10:28:08;3.80;;;1.67;;
6205;SDS011;3136;48.788;9.772;2023-12-20T10:30:46;7.63;;;4.40;;
6205;SDS011;3136;48.788;9.772;2023-12-20T10:33:12;6.93;;;4.87;;
6205;SDS011;3136;48.788;9.772;2023-12-20T10:35:38;5.70;;;2.23;;
6205;SDS011;3136;48.788;9.772;2023-12-20T10:38:05;2.80;;;1.83;;
6205;SDS011;3136;48.788;9.772;2023-12-20T10:40:35;2.57;;;1.87;;
6205;SDS011;3136;48.788;9.772;2023-12-20T10:43:02;3.17;;;1.90;;
6205;SDS011;3136;48.788;9.772;2023-12-20T10:45:28;3.17;;;1.87;;
6205;SDS011;3136;48.788;9.772;2023-12-20T10:47:54;3.40;;;2.00;;
6205;SDS011;3136;48.788;9.772;2023-12-20T10:50:21;4.13;;;1.87;;
6205;SDS011;3136;48.788;9.772;2023-12-20T10:52:46;2.10;;;1.60;;
6205;SDS011;3136;48.788;9.772;2023-12-20T10:55:12;6.47;;;1.53;;
6205;SDS011;3136;48.788;9.772;2023-12-20T10:57:38;4.67;;;1.83;;
6205;SDS011;3136;48.788;9.772;2023-12-20T11:00:06;8.67;;;1.80;;
6205;SDS011;3136;48.788;9.772;2023-12-20T11:02:38;6.23;;;1.50;;
6205;SDS011;3136;48.788;9.772;2023-12-20T11:08:26;4.20;;;1.80;;
6205;SDS011;3136;48.788;9.772;2023-12-20T11:10:30;4.50;;;1.50;;
6205;SDS011;3136;48.788;9.772;2023-12-20T11:13:19;6.93;;;1.63;;
6205;SDS011;3136;48.788;9.772;2023-12-20T11:15:48;2.90;;;1.40;;
6205;SDS011;3136;48.788;9.772;2023-12-20T11:18:14;5.47;;;1.40;;
6205;SDS011;3136;48.788;9.772;2023-12-20T11:20:41;4.57;;;1.27;;
6205;SDS011;3136;48.788;9.772;2023-12-20T11:23:07;7.80;;;1.40;;
6205;SDS011;3136;48.788;9.772;2023-12-20T11:25:46;6.23;;;1.40;;
6205;SDS011;3136;48.788;9.772;2023-12-20T11:28:13;4.03;;;1.50;;
6205;SDS011;3136;48.788;9.772;2023-12-20T11:30:40;6.07;;;1.97;;
6205;SDS011;3136;48.788;9.772;2023-12-20T11:33:13;5.70;;;1.50;;
6205;SDS011;3136;48.788;9.772;2023-12-20T11:35:42;5.77;;;1.60;;
6205;SDS011;3136;48.788;9.772;2023-12-20T11:38:08;5.37;;;1.50;;
6205;SDS011;3136;48.788;9.772;2023-12-20T11:40:35;7.83;;;2.10;;
6205;SDS011;3136;48.788;9.772;2023-12-20T11:43:02;5.47;;;2.00;;
6205;SDS011;3136;48.788;9.772;2023-12-20T11:45:27;7.20;;;1.60;;
6205;SDS011;3136;48.788;9.772;2023-12-20T11:47:53;3.63;;;1.57;;
6205;SDS011;3136;48.788;9.772;2023-12-20T11:50:19;2.57;;;1.53;;
6205;SDS011;3136;48.788;9.772;2023-12-20T11:52:47;3.67;;;1.13;;
6205;SDS011;3136;48.788;9.772;2023-12-20T11:55:13;7.00;;;1.30;;
6205;SDS011;3136;48.788;9.772;2023-12-20T11:57:38;4.87;;;1.40;;
6205;SDS011;3136;48.788;9.772;2023-12-20T12:00:04;7.43;;;1.77;;
6205;SDS011;3136;48.788;9.772;2023-12-20T12:02:31;4.27;;;1.40;;
6205;SDS011;3136;48.788;9.772;2023-12-20T12:04:57;4.87;;;1.33;;
6205;SDS011;3136;48.788;9.772;2023-12-20T12:07:24;5.13;;;1.50;;
6205;SDS011;3136;48.788;9.772;2023-12-20T12:09:49;4.87;;;1.37;;
6205;SDS011;3136;48.788;9.772;2023-12-20T12:12:15;5.57;;;1.40;;
6205;SDS011;3136;48.788;9.772;2023-12-20T12:14:41;3.00;;;1.50;;
6205;SDS011;3136;48.788;9.772;2023-12-20T12:17:13;3.73;;;1.30;;
6205;SDS011;3136;48.788;9.772;2023-12-20T12:19:40;3.43;;;1.23;;
6205;SDS011;3136;48.788;9.772;2023-12-20T12:22:15;3.70;;;2.00;;
6205;SDS011;3136;48.788;9.772;2023-12-20T12:24:44;4.73;;;1.40;;
6205;SDS011;3136;48.788;9.772;2023-12-20T12:27:11;3.87;;;1.27;;
6205;SDS011;3136;48.788;9.772;2023-12-20T12:29:38;5.03;;;1.60;;
6205;SDS011;3136;48.788;9.772;2023-12-20T12:32:07;4.50;;;1.50;;
6205;SDS011;3136;48.788;9.772;2023-12-20T12:34:33;3.30;;;1.37;;
6205;SDS011;3136;48.788;9.772;2023-12-20T12:37:03;4.23;;;1.60;;
6205;SDS011;3136;48.788;9.772;2023-12-20T12:39:29;3.27;;;1.27;;
6205;SDS011;3136;48.788;9.772;2023-12-20T12:41:55;7.23;;;1.80;;
6205;SDS011;3136;48.788;9.772;2023-12-20T12:44:22;4.27;;;1.20;;
6205;SDS011;3136;48.788;9.772;2023-12-20T12:46:50;5.23;;;1.30;;
6205;SDS011;3136;48.788;9.772;2023-12-20T12:49:16;5.83;;;1.40;;
6205;SDS011;3136;48.788;9.772;2023-12-20T12:51:42;5.30;;;1.50;;
6205;SDS011;3136;48.788;9.772;2023-12-20T12:54:08;4.07;;;1.70;;
6205;SDS011;3136;48.788;9.772;2023-12-20T12:56:35;4.20;;;1.43;;
6205;SDS011;3136;48.788;9.772;2023-12-20T12:59:01;6.10;;;1.50;;
6205;SDS011;3136;48.788;9.772;2023-12-20T13:01:27;8.27;;;1.70;;
6205;SDS011;3136;48.788;9.772;2023-12-20T13:03:52;4.53;;;1.50;;
6205;SDS011;3136;48.788;9.772;2023-12-20T13:06:19;3.13;;;1.10;;
6205;SDS011;3136;48.788;9.772;2023-12-20T13:08:45;2.93;;;1.43;;
6205;SDS011;3136;48.788;9.772;2023-12-20T13:11:10;5.43;;;1.23;;
6205;SDS011;3136;48.788;9.772;2023-12-20T13:13:36;4.40;;;1.80;;
6205;SDS011;3136;48.788;9.772;2023-12-20T13:16:01;5.10;;;1.30;;
6205;SDS011;3136;48.788;9.772;2023-12-20T13:18:27;3.17;;;1.53;;
6205;SDS011;3136;48.788;9.772;2023-12-20T13:20:53;4.80;;;1.70;;
6205;SDS011;3136;48.788;9.772;2023-12-20T13:23:19;3.97;;;1.40;;
6205;SDS011;3136;48.788;9.772;2023-12-20T13:25:44;2.33;;;1.27;;
6205;SDS011;3136;48.788;9.772;2023-12-20T13:28:12;3.90;;;1.47;;
6205;SDS011;3136;48.788;9.772;2023-12-20T13:30:38;5.17;;;1.80;;
6205;SDS011;3136;48.788;9.772;2023-12-20T13:33:04;8.63;;;3.03;;
6205;SDS011;3136;48.788;9.772;2023-12-20T13:35:31;2.97;;;1.50;;
6205;SDS011;3136;48.788;9.772;2023-12-20T13:37:57;5.77;;;1.63;;
6205;SDS011;3136;48.788;9.772;2023-12-20T13:40:23;6.60;;;2.07;;
6205;SDS011;3136;48.788;9.772;2023-12-20T13:42:48;2.90;;;1.50;;
6205;SDS011;3136;48.788;9.772;2023-12-20T13:45:14;5.13;;;2.17;;
6205;SDS011;3136;48.788;9.772;2023-12-20T13:47:40;5.80;;;1.63;;
6205;SDS011;3136;48.788;9.772;2023-12-20T13:50:05;6.03;;;1.90;;
6205;SDS011;3136;48.788;9.772;2023-12-20T13:52:31;6.90;;;1.80;;
6205;SDS011;3136;48.788;9.772;2023-12-20T13:54:57;6.73;;;1.87;;
6205;SDS011;3136;48.788;9.772;2023-12-20T13:57:22;3.67;;;1.63;;
6205;SDS011;3136;48.788;9.772;2023-12-20T13:59:48;4.10;;;1.40;;
6205;SDS011;3136;48.788;9.772;2023-12-20T14:02:13;3.37;;;1.40;;
6205;SDS011;3136;48.788;9.772;2023-12-20T14:04:40;3.67;;;1.43;;
6205;SDS011;3136;48.788;9.772;2023-12-20T14:07:05;4.87;;;1.60;;
6205;SDS011;3136;48.788;9.772;2023-12-20T14:09:32;4.77;;;1.73;;
6205;SDS011;3136;48.788;9.772;2023-12-20T14:11:58;5.70;;;1.93;;
6205;SDS011;3136;48.788;9.772;2023-12-20T14:14:23;4.00;;;1.37;;
6205;SDS011;3136;48.788;9.772;2023-12-20T14:16:49;9.07;;;2.07;;
6205;SDS011;3136;48.788;9.772;2023-12-20T14:19:15;4.97;;;1.50;;
6205;SDS011;3136;48.788;9.772;2023-12-20T14:21:40;7.00;;;2.13;;
6205;SDS011;3136;48.788;9.772;2023-12-20T14:24:06;6.50;;;2.77;;
6205;SDS011;3136;48.788;9.772;2023-12-20T14:26:32;6.07;;;2.40;;
6205;SDS011;3136;48.788;9.772;2023-12-20T14:28:57;6.63;;;1.50;;
6205;SDS011;3136;48.788;9.772;2023-12-20T14:31:23;4.80;;;1.77;;
6205;SDS011;3136;48.788;9.772;2023-12-20T14:33:50;6.10;;;1.90;;
6205;SDS011;3136;48.788;9.772;2023-12-20T14:36:18;6.03;;;1.60;;
6205;SDS011;3136;48.788;9.772;2023-12-20T14:38:45;5.73;;;1.67;;
6205;SDS011;3136;48.788;9.772;2023-12-20T14:41:12;4.17;;;1.50;;
6205;SDS011;3136;48.788;9.772;2023-12-20T14:43:37;3.87;;;1.70;;
6205;SDS011;3136;48.788;9.772;2023-12-20T14:46:03;5.07;;;1.50;;
6205;SDS011;3136;48.788;9.772;2023-12-20T14:48:30;5.07;;;1.40;;
6205;SDS011;3136;48.788;9.772;2023-12-20T14:50:57;1.80;;;1.30;;
6205;SDS011;3136;48.788;9.772;2023-12-20T14:53:24;7.07;;;1.97;;
6205;SDS011;3136;48.788;9.772;2023-12-20T14:55:50;7.40;;;2.00;;
6205;SDS011;3136;48.788;9.772;2023-12-20T14:58:16;3.80;;;1.60;;
6205;SDS011;3136;48.788;9.772;2023-12-20T15:00:41;5.20;;;1.70;;
6205;SDS011;3136;48.788;9.772;2023-12-20T15:03:07;3.63;;;1.23;;
6205;SDS011;3136;48.788;9.772;2023-12-20T15:05:33;7.33;;;1.50;;
6205;SDS011;3136;48.788;9.772;2023-12-20T15:07:59;4.50;;;1.30;;
6205;SDS011;3136;48.788;9.772;2023-12-20T15:10:24;2.80;;;1.30;;